Time;durP1;ratioP1;P1;durP2;ratioP2;P2;SDS_P1;SDS_P2;PMS_P1;PMS_P2;Temp;Humidity;BMP_temperature;BMP_pressure;BME280_temperature;BME280_humidity;BME280_pressure;Samples;Min_cycle;Max_cycle;Signal;HPM_P1;HPM_P2
2023/12/23 00:00:32;;;;;;;17.63;3.63;;;5.50;99.90;;;;;;5002570;28;20119;-81
2023/12/23 00:02:58;;;;;;;15.93;3.58;;;5.60;99.90;;;;;;4979865;28;20408;-82
2023/12/23 00:05:23;;;;;;;19.65;3.85;;;5.60;99.90;;;;;;5011930;28;20435;-81
2023/12/23 00:07:49;;;;;;;18.33;3.47;;;5.60;99.90;;;;;;5024694;28;20061;-81
2023/12/23 00:10:15;;;;;;;20.08;3.78;;;5.50;99.90;;;;;;4980081;28;20042;-81
2023/12/23 00:12:40;;;;;;;22.10;3.85;;;5.60;99.90;;;;;;5012190;28;20034;-82
2023/12/23 00:15:06;;;;;;;16.25;3.38;;;5.60;99.90;;;;;;5012355;28;20040;-81
2023/12/23 00:17:31;;;;;;;18.95;3.33;;;5.60;99.90;;;;;;5013262;28;20057;-81
2023/12/23 00:19:57;;;;;;;15.93;4.30;;;5.60;99.90;;;;;;5014387;28;20041;-81
2023/12/23 00:22:22;;;;;;;23.20;3.95;;;5.60;99.90;;;;;;5015705;28;20068;-80
2023/12/23 00:24:48;;;;;;;16.17;3.13;;;5.60;99.90;;;;;;4998949;28;20042;-81
2023/12/23 00:27:14;;;;;;;16.23;3.63;;;5.60;99.90;;;;;;5014572;28;20072;-81
2023/12/23 00:29:40;;;;;;;15.32;3.83;;;5.60;99.90;;;;;;5028908;28;20039;-81
2023/12/23 00:32:06;;;;;;;16.45;3.25;;;5.60;99.90;;;;;;5014899;28;20423;-81
2023/12/23 00:34:31;;;;;;;15.65;3.70;;;5.60;99.90;;;;;;5014898;28;20041;-81
2023/12/23 00:36:57;;;;;;;18.10;3.53;;;5.50;99.90;;;;;;4998359;28;20156;-81
2023/12/23 00:39:22;;;;;;;15.57;3.33;;;5.60;99.90;;;;;;5031165;28;20077;-81
2023/12/23 00:41:48;;;;;;;23.92;3.80;;;5.60;99.90;;;;;;4998353;28;20416;-81
2023/12/23 00:44:14;;;;;;;14.45;2.83;;;5.60;99.90;;;;;;4997389;28;20484;-82
2023/12/23 00:46:39;;;;;;;15.55;3.40;;;5.60;99.90;;;;;;4995975;28;20155;-81
2023/12/23 00:49:05;;;;;;;13.52;3.00;;;5.60;99.90;;;;;;5014539;28;20040;-81
2023/12/23 00:51:30;;;;;;;14.98;3.70;;;5.70;99.90;;;;;;4981470;28;20048;-81
2023/12/23 00:53:56;;;;;;;15.63;4.00;;;5.70;99.90;;;;;;4994562;28;20125;-81
2023/12/23 00:56:22;;;;;;;13.75;3.00;;;5.70;99.90;;;;;;4995025;28;20497;-81
2023/12/23 00:58:48;;;;;;;17.20;2.97;;;5.70;99.90;;;;;;5018826;28;20496;-81
2023/12/23 01:01:14;;;;;;;14.30;3.30;;;5.70;99.90;;;;;;4995965;28;20037;-81
2023/12/23 01:03:39;;;;;;;13.63;3.17;;;5.70;99.90;;;;;;5014330;28;20171;-81
2023/12/23 01:06:05;;;;;;;19.42;3.40;;;5.70;99.90;;;;;;4997936;28;20673;-81
2023/12/23 01:08:31;;;;;;;14.38;2.85;;;5.70;99.90;;;;;;5013390;28;20042;-81
2023/12/23 01:10:57;;;;;;;16.42;3.40;;;5.70;99.90;;;;;;4986403;28;20029;-81
2023/12/23 01:13:22;;;;;;;14.07;3.40;;;5.70;99.90;;;;;;4994949;28;20037;-82
2023/12/23 01:15:48;;;;;;;12.73;2.80;;;5.70;99.90;;;;;;5014195;28;20492;-82
2023/12/23 01:18:14;;;;;;;16.83;3.40;;;5.70;99.90;;;;;;4997817;28;20463;-82
2023/12/23 01:20:42;;;;;;;13.85;2.80;;;5.70;99.90;;;;;;4988090;28;20508;-82
2023/12/23 01:23:10;;;;;;;13.82;2.65;;;5.70;99.90;;;;;;5006153;28;20128;-82
2023/12/23 01:25:36;;;;;;;13.10;2.67;;;5.70;99.90;;;;;;4997456;28;20125;-81
2023/12/23 01:28:04;;;;;;;11.13;2.78;;;5.70;99.90;;;;;;5030519;28;20124;-81
2023/12/23 01:30:36;;;;;;;14.73;2.97;;;5.70;99.90;;;;;;4988260;28;20076;-81
2023/12/23 01:33:02;;;;;;;16.77;2.97;;;5.70;99.90;;;;;;4994307;28;20044;-81
2023/12/23 01:35:28;;;;;;;14.27;2.50;;;5.70;99.90;;;;;;4978339;28;20392;-82
2023/12/23 01:37:53;;;;;;;13.18;3.15;;;5.70;99.90;;;;;;5001052;28;20432;-81
2023/12/23 01:40:19;;;;;;;15.32;2.30;;;5.70;99.90;;;;;;5013427;28;20084;-81
2023/12/23 01:42:45;;;;;;;14.07;3.45;;;5.70;99.90;;;;;;5030405;28;20491;-81
2023/12/23 01:45:10;;;;;;;17.30;3.38;;;5.70;99.90;;;;;;5013973;28;20499;-81
2023/12/23 01:47:41;;;;;;;13.50;2.72;;;5.70;99.90;;;;;;5030575;28;20041;-81
2023/12/23 01:50:09;;;;;;;13.32;2.72;;;5.70;99.90;;;;;;5007096;28;20046;-81
2023/12/23 01:52:36;;;;;;;12.82;2.42;;;5.70;99.90;;;;;;5008922;28;20041;-82
2023/12/23 01:55:06;;;;;;;12.43;2.70;;;5.70;99.90;;;;;;4992928;28;20049;-82
2023/12/23 01:57:32;;;;;;;14.95;3.08;;;5.80;99.90;;;;;;4997498;28;20057;-82
2023/12/23 01:59:58;;;;;;;12.60;2.88;;;5.80;99.90;;;;;;4996959;28;20120;-81
2023/12/23 02:02:24;;;;;;;12.75;2.70;;;5.80;99.90;;;;;;5029420;28;20444;-82
2023/12/23 02:04:50;;;;;;;10.45;2.28;;;5.80;99.90;;;;;;4997099;28;20034;-81
2023/12/23 02:07:15;;;;;;;10.60;2.75;;;5.80;99.90;;;;;;5013588;28;20053;-81
2023/12/23 02:09:41;;;;;;;10.20;2.47;;;5.90;99.90;;;;;;5012725;28;20380;-81
2023/12/23 02:12:26;;;;;;;10.95;2.20;;;5.80;99.90;;;;;;5014210;28;20041;-81
2023/12/23 02:15:06;;;;;;;7.50;1.95;;;5.80;99.90;;;;;;5006697;28;20037;-81
2023/12/23 02:17:32;;;;;;;11.25;2.40;;;5.80;99.90;;;;;;4997765;28;20042;-81
2023/12/23 02:19:57;;;;;;;11.18;2.40;;;5.70;99.90;;;;;;5024968;28;20053;-81
2023/12/23 02:22:23;;;;;;;11.07;2.25;;;5.80;99.90;;;;;;5008442;28;20041;-81
2023/12/23 02:24:49;;;;;;;14.25;2.75;;;5.80;99.90;;;;;;4997328;28;20038;-81
2023/12/23 02:27:17;;;;;;;10.40;1.90;;;5.80;99.90;;;;;;4995039;28;20042;-82
2023/12/23 02:29:45;;;;;;;10.85;2.60;;;5.80;99.90;;;;;;5012577;28;20566;-81
2023/12/23 02:32:12;;;;;;;11.77;2.70;;;5.80;99.90;;;;;;4998066;28;20240;-82
2023/12/23 02:34:38;;;;;;;12.70;2.75;;;5.80;99.90;;;;;;4981657;28;20511;-82
2023/12/23 02:37:04;;;;;;;16.13;2.38;;;5.80;99.90;;;;;;4997786;28;20046;-81
2023/12/23 02:39:29;;;;;;;17.75;2.70;;;5.80;99.90;;;;;;4998887;28;20496;-81
2023/12/23 02:41:56;;;;;;;14.50;2.72;;;5.70;99.90;;;;;;5015331;28;20401;-81
2023/12/23 02:44:21;;;;;;;15.75;2.72;;;5.70;99.90;;;;;;5032764;28;20041;-82
2023/12/23 02:46:47;;;;;;;13.45;2.58;;;5.70;99.90;;;;;;5033410;28;20038;-82
2023/12/23 02:49:12;;;;;;;14.80;2.50;;;5.70;99.90;;;;;;5016828;28;20048;-82
2023/12/23 02:51:38;;;;;;;16.05;2.90;;;5.70;99.90;;;;;;4982574;28;20034;-82
2023/12/23 02:54:04;;;;;;;16.90;2.97;;;5.70;99.90;;;;;;5013459;28;20518;-82
2023/12/23 02:56:30;;;;;;;26.08;3.22;;;5.70;99.90;;;;;;5012878;28;20034;-82
2023/12/23 02:58:56;;;;;;;16.85;2.63;;;5.60;99.90;;;;;;5015848;28;20512;-82
2023/12/23 03:01:22;;;;;;;19.77;2.83;;;5.70;99.90;;;;;;5032723;28;20052;-82
2023/12/23 03:03:47;;;;;;;19.65;3.15;;;5.70;99.90;;;;;;5000170;28;20044;-82
2023/12/23 03:06:14;;;;;;;14.45;2.47;;;5.70;99.90;;;;;;5016794;28;20132;-82
2023/12/23 03:08:40;;;;;;;15.68;2.53;;;5.70;99.90;;;;;;4999723;28;20087;-81
2023/12/23 03:11:06;;;;;;;17.98;2.78;;;5.70;99.90;;;;;;4997739;28;20072;-81
2023/12/23 03:13:31;;;;;;;17.10;2.80;;;5.70;99.90;;;;;;5000034;28;20436;-81
2023/12/23 03:15:57;;;;;;;19.33;2.85;;;5.70;99.90;;;;;;5000453;28;20115;-81
2023/12/23 03:18:22;;;;;;;12.32;1.95;;;5.70;99.90;;;;;;5015849;28;20112;-81
2023/12/23 03:20:49;;;;;;;17.30;2.60;;;5.70;99.90;;;;;;5014453;28;20050;-82
2023/12/23 03:23:15;;;;;;;17.92;2.53;;;5.70;99.90;;;;;;5015625;28;20041;-81
2023/12/23 03:25:41;;;;;;;18.58;2.42;;;5.70;99.90;;;;;;5016188;28;20456;-81
2023/12/23 03:28:06;;;;;;;17.27;2.90;;;5.70;99.90;;;;;;5016270;28;20037;-82
2023/12/23 03:30:32;;;;;;;17.40;2.28;;;5.70;99.90;;;;;;4990347;28;20164;-81
2023/12/23 03:32:57;;;;;;;20.45;2.50;;;5.70;99.90;;;;;;4983066;28;20088;-82
2023/12/23 03:35:23;;;;;;;14.00;2.20;;;5.70;99.90;;;;;;4999158;28;20124;-81
2023/12/23 03:37:48;;;;;;;16.25;2.22;;;5.70;99.90;;;;;;4999844;28;20133;-82
2023/12/23 03:40:14;;;;;;;21.52;2.90;;;5.70;99.90;;;;;;4999372;28;20048;-82
2023/12/23 03:42:40;;;;;;;16.92;2.38;;;5.70;99.90;;;;;;4989390;28;20330;-82
2023/12/23 03:45:07;;;;;;;16.58;2.58;;;5.70;99.90;;;;;;4996421;28;20056;-82
2023/12/23 03:47:34;;;;;;;18.70;2.70;;;5.70;99.90;;;;;;4980139;28;20131;-82
2023/12/23 03:50:00;;;;;;;18.00;2.47;;;5.70;99.90;;;;;;5031365;28;20030;-81
2023/12/23 03:52:25;;;;;;;17.73;2.55;;;5.70;99.90;;;;;;5032396;28;20144;-82
2023/12/23 03:54:51;;;;;;;17.20;3.45;;;5.70;99.90;;;;;;5032288;28;20127;-82
2023/12/23 03:57:16;;;;;;;14.93;2.75;;;5.70;99.90;;;;;;5032638;28;20492;-82
2023/12/23 03:59:42;;;;;;;17.25;2.65;;;5.70;99.90;;;;;;5029355;28;20034;-82
2023/12/23 04:02:08;;;;;;;16.67;2.92;;;5.70;99.90;;;;;;5008452;28;20064;-83
2023/12/23 04:04:38;;;;;;;18.75;3.28;;;5.70;99.90;;;;;;5020462;28;20554;-83
2023/12/23 04:07:03;;;;;;;16.30;2.95;;;5.70;99.90;;;;;;5012932;28;20045;-82
2023/12/23 04:09:29;;;;;;;18.20;3.35;;;5.70;99.90;;;;;;4996531;28;20084;-83
2023/12/23 04:11:55;;;;;;;17.42;3.90;;;5.80;99.90;;;;;;4980595;28;20088;-83
2023/12/23 04:14:46;;;;;;;14.07;2.85;;;5.70;99.90;;;;;;4998888;23;20137;-82
2023/12/23 04:17:17;;;;;;;11.82;2.95;;;5.80;99.90;;;;;;4975913;28;20129;-82
2023/12/23 04:19:47;;;;;;;13.82;3.35;;;5.70;99.90;;;;;;4959681;28;20068;-82
2023/12/23 04:23:16;;;;;;;;;;;;;;;;;;;;;
2023/12/23 04:26:14;;;;;;;;;;;;;;;;;;;;;
2023/12/23 04:37:29;;;;;;;;;;;;;;;;;;;;;
2023/12/23 04:44:39;;;;;;;14.63;5.78;;;5.70;99.90;;;;;;4842723;29;20089;-82
2023/12/23 04:47:17;;;;;;;13.65;7.10;;;5.80;99.90;;;;;;4858909;29;20045;-82
2023/12/23 04:49:59;;;;;;;14.02;7.43;;;5.80;99.90;;;;;;4899114;29;20108;-82
2023/12/23 04:52:25;;;;;;;13.93;8.43;;;5.90;99.90;;;;;;4883041;29;20088;-82
2023/12/23 04:55:19;;;;;;;18.50;10.00;;;6.00;99.90;;;;;;4905068;28;20050;-82
2023/12/23 05:01:25;;;;;;;25.48;11.00;;;6.40;99.90;;;;;;4929972;29;20058;-83
2023/12/23 05:03:51;;;;;;;28.92;12.60;;;6.60;99.90;;;;;;4955710;28;20093;-82
2023/12/23 05:06:17;;;;;;;22.83;11.27;;;6.80;99.90;;;;;;4940177;28;20039;-81
2023/12/23 05:08:42;;;;;;;33.75;14.63;;;7.10;99.90;;;;;;4953855;28;20039;-81
2023/12/23 05:11:08;;;;;;;28.08;13.25;;;7.30;99.90;;;;;;4955029;28;20035;-82
2023/12/23 05:13:33;;;;;;;33.05;12.88;;;7.40;99.90;;;;;;4932906;28;20038;-81
2023/12/23 05:15:59;;;;;;;32.35;13.45;;;7.60;99.90;;;;;;4940334;28;20041;-82
2023/12/23 05:18:25;;;;;;;23.67;11.07;;;7.60;99.90;;;;;;4956041;28;20062;-82
2023/12/23 05:20:50;;;;;;;26.88;12.10;;;7.70;99.90;;;;;;4939891;28;20500;-82
2023/12/23 05:23:16;;;;;;;26.48;11.23;;;7.70;99.90;;;;;;4936681;28;20097;-81
2023/12/23 05:25:42;;;;;;;37.92;13.27;;;7.80;99.90;;;;;;4949489;28;20042;-82
2023/12/23 05:28:08;;;;;;;28.60;11.65;;;7.80;99.90;;;;;;4933501;28;20077;-81
2023/12/23 05:30:33;;;;;;;23.88;11.63;;;7.90;99.90;;;;;;4939729;28;20034;-82
2023/12/23 05:32:59;;;;;;;28.77;11.02;;;7.90;99.90;;;;;;4937968;28;20106;-83
2023/12/23 05:35:24;;;;;;;24.00;10.27;;;7.90;99.90;;;;;;4932233;29;20062;-82
2023/12/23 05:37:50;;;;;;;29.45;11.63;;;7.90;99.90;;;;;;4944059;29;20498;-82
2023/12/23 05:40:16;;;;;;;33.35;10.73;;;8.00;99.90;;;;;;4946041;28;20511;-82
2023/12/23 05:42:41;;;;;;;22.85;9.32;;;8.00;99.90;;;;;;4971501;28;20061;-82
2023/12/23 05:45:07;;;;;;;34.22;11.68;;;8.00;99.90;;;;;;4971531;28;20047;-81
2023/12/23 05:47:33;;;;;;;26.60;10.60;;;8.00;99.90;;;;;;4947186;28;20087;-82
2023/12/23 05:49:58;;;;;;;34.75;11.20;;;8.00;99.90;;;;;;4935641;28;20046;-82
2023/12/23 05:52:24;;;;;;;24.70;9.48;;;8.00;99.90;;;;;;4955742;28;20073;-83
2023/12/23 05:54:49;;;;;;;26.10;10.93;;;8.10;99.90;;;;;;4939166;28;20049;-83
2023/12/23 05:57:16;;;;;;;31.05;11.73;;;8.10;99.90;;;;;;4942296;28;20043;-82
2023/12/23 05:59:41;;;;;;;33.65;11.45;;;8.00;99.90;;;;;;4959142;28;20118;-82
2023/12/23 06:02:08;;;;;;;36.83;12.80;;;8.10;99.90;;;;;;4941264;28;20472;-83
2023/12/23 06:04:33;;;;;;;41.10;12.60;;;8.10;99.90;;;;;;4942941;28;20037;-82
2023/12/23 06:06:59;;;;;;;40.78;12.98;;;8.10;99.90;;;;;;4943299;28;20038;-82
2023/12/23 06:09:25;;;;;;;34.22;11.02;;;8.20;99.90;;;;;;4958717;28;20035;-82
2023/12/23 06:11:51;;;;;;;39.00;12.50;;;8.10;99.90;;;;;;4958953;28;20497;-82
2023/12/23 06:14:16;;;;;;;38.35;11.50;;;8.20;99.90;;;;;;4942861;28;20409;-82
2023/12/23 06:16:42;;;;;;;39.25;11.20;;;8.20;99.90;;;;;;4944376;28;20069;-82
2023/12/23 06:19:07;;;;;;;45.95;12.98;;;8.20;99.90;;;;;;4934207;29;20050;-82
2023/12/23 06:21:33;;;;;;;40.67;12.98;;;8.20;99.90;;;;;;4955900;28;20039;-82
2023/12/23 06:23:59;;;;;;;39.88;11.38;;;8.30;99.90;;;;;;4942798;28;20054;-81
2023/12/23 06:26:25;;;;;;;38.22;10.88;;;8.20;99.90;;;;;;4958669;28;20049;-82
2023/12/23 06:28:51;;;;;;;31.88;10.02;;;8.30;99.90;;;;;;4958798;28;20058;-82
2023/12/23 06:31:17;;;;;;;30.23;10.52;;;8.30;99.90;;;;;;4958035;28;20043;-83
2023/12/23 06:33:43;;;;;;;34.15;10.82;;;8.30;99.90;;;;;;4942779;28;20398;-82
2023/12/23 06:36:09;;;;;;;40.20;11.43;;;8.40;99.90;;;;;;4958856;28;20118;-82
2023/12/23 06:38:37;;;;;;;32.72;9.77;;;8.30;99.90;;;;;;4942450;28;20122;-82
2023/12/23 06:41:03;;;;;;;39.63;11.05;;;8.30;99.90;;;;;;4938561;28;20047;-83
2023/12/23 06:43:29;;;;;;;33.85;9.48;;;8.30;99.90;;;;;;4942295;28;20493;-83
2023/12/23 06:45:56;;;;;;;27.85;8.65;;;8.40;99.90;;;;;;4942222;28;20182;-82
2023/12/23 06:48:22;;;;;;;35.30;10.88;;;8.40;99.90;;;;;;4926609;28;20074;-83
2023/12/23 06:50:47;;;;;;;40.40;10.75;;;8.50;99.90;;;;;;4928325;28;20079;-82
2023/12/23 06:53:13;;;;;;;32.35;9.68;;;8.40;99.90;;;;;;4941717;28;20042;-83
2023/12/23 06:55:39;;;;;;;32.08;9.00;;;8.50;99.90;;;;;;4941702;29;20039;-83
2023/12/23 06:58:04;;;;;;;34.78;10.18;;;8.50;99.90;;;;;;4938305;28;20049;-82
2023/12/23 07:00:30;;;;;;;41.83;10.07;;;8.50;99.90;;;;;;4957671;28;20041;-82
2023/12/23 07:02:55;;;;;;;31.73;8.98;;;8.50;99.90;;;;;;4941849;28;20511;-82
2023/12/23 07:05:21;;;;;;;33.95;9.18;;;8.50;99.90;;;;;;4942622;28;20405;-83
2023/12/23 07:07:46;;;;;;;26.80;8.57;;;8.50;99.90;;;;;;4932806;28;20139;-83
2023/12/23 07:10:13;;;;;;;32.40;9.98;;;8.50;99.90;;;;;;4936288;29;20050;-83
2023/12/23 07:12:40;;;;;;;32.58;10.50;;;8.50;99.90;;;;;;4935647;28;20100;-84
2023/12/23 07:15:09;;;;;;;32.03;9.55;;;8.50;99.90;;;;;;4941252;28;20047;-82
2023/12/23 07:17:34;;;;;;;33.83;9.05;;;8.60;99.90;;;;;;4972151;28;20042;-84
2023/12/23 07:20:01;;;;;;;32.28;9.23;;;8.50;99.90;;;;;;4941732;28;20045;-84
2023/12/23 07:22:28;;;;;;;27.08;8.07;;;8.60;99.90;;;;;;4941860;28;20412;-83
2023/12/23 07:24:56;;;;;;;29.30;8.32;;;8.50;99.90;;;;;;4941279;28;20413;-84
2023/12/23 07:27:22;;;;;;;36.85;9.38;;;8.60;99.90;;;;;;4941755;28;20047;-82
2023/12/23 07:29:48;;;;;;;39.42;10.05;;;8.60;99.90;;;;;;4974320;28;20054;-82
2023/12/23 07:32:14;;;;;;;32.25;8.85;;;8.60;99.90;;;;;;4973645;28;20031;-83
2023/12/23 07:34:40;;;;;;;34.90;8.40;;;8.60;99.90;;;;;;4941383;28;20061;-83
2023/12/23 07:37:05;;;;;;;36.28;8.32;;;8.60;99.90;;;;;;4941697;28;20042;-83
2023/12/23 07:39:31;;;;;;;39.95;10.52;;;8.60;99.90;;;;;;4973006;28;20460;-84
2023/12/23 07:41:57;;;;;;;34.97;8.82;;;8.60;99.90;;;;;;4957428;28;20466;-82
2023/12/23 07:44:24;;;;;;;34.28;9.27;;;8.60;99.90;;;;;;4940601;28;20035;-83
2023/12/23 07:46:49;;;;;;;27.65;7.57;;;8.60;99.90;;;;;;4940849;28;20078;-83
2023/12/23 07:49:15;;;;;;;38.85;10.23;;;8.70;99.90;;;;;;4941175;28;20065;-82
2023/12/23 07:51:41;;;;;;;36.88;9.93;;;8.70;99.90;;;;;;4958721;28;20047;-83
2023/12/23 07:54:06;;;;;;;32.92;8.65;;;8.70;99.90;;;;;;4953362;28;20078;-83
2023/12/23 07:56:32;;;;;;;29.15;9.07;;;8.70;99.90;;;;;;4938869;28;20043;-82
2023/12/23 07:58:57;;;;;;;29.35;8.55;;;8.60;99.90;;;;;;4940665;28;20046;-84
2023/12/23 08:01:23;;;;;;;34.50;8.38;;;8.70;99.90;;;;;;4938789;28;20385;-82
2023/12/23 08:03:49;;;;;;;37.90;8.75;;;8.70;99.90;;;;;;4940292;28;20042;-83
2023/12/23 08:06:16;;;;;;;36.83;9.18;;;8.70;99.90;;;;;;4956764;28;20065;-82
2023/12/23 08:08:42;;;;;;;31.40;7.90;;;8.70;99.90;;;;;;4940608;28;20031;-82
2023/12/23 08:11:08;;;;;;;28.77;7.22;;;8.70;99.90;;;;;;4972930;28;20035;-82
2023/12/23 08:13:34;;;;;;;32.05;7.95;;;8.70;99.90;;;;;;4940096;28;20560;-82
2023/12/23 08:15:59;;;;;;;36.05;8.50;;;8.70;99.90;;;;;;4939878;28;20509;-83
2023/12/23 08:18:25;;;;;;;30.77;7.20;;;8.70;99.90;;;;;;4940844;28;20047;-83
2023/12/23 08:20:50;;;;;;;36.92;9.65;;;8.70;99.90;;;;;;4957127;28;20446;-82
2023/12/23 08:23:16;;;;;;;30.80;7.38;;;8.70;99.90;;;;;;4939015;28;20045;-83
2023/12/23 08:25:44;;;;;;;29.48;7.35;;;8.80;99.90;;;;;;4956268;28;20460;-83
2023/12/23 08:28:10;;;;;;;23.48;6.35;;;8.70;99.90;;;;;;4956169;28;20038;-83
2023/12/23 08:30:35;;;;;;;24.10;6.47;;;8.70;99.90;;;;;;4940122;28;20049;-83
2023/12/23 08:33:01;;;;;;;24.38;6.38;;;8.70;99.90;;;;;;4956461;28;20034;-83
2023/12/23 08:35:26;;;;;;;26.27;5.85;;;8.80;99.90;;;;;;4956661;28;20035;-83
2023/12/23 08:37:52;;;;;;;29.90;6.53;;;8.80;99.90;;;;;;4961792;28;20043;-83
2023/12/23 08:40:17;;;;;;;23.08;6.25;;;8.80;99.90;;;;;;4940938;28;20038;-84
2023/12/23 08:42:44;;;;;;;27.00;6.20;;;8.80;99.90;;;;;;4956433;28;20043;-84
2023/12/23 08:45:10;;;;;;;25.48;5.80;;;8.80;99.90;;;;;;4956477;28;20074;-83
2023/12/23 08:47:39;;;;;;;27.75;6.15;;;8.80;99.90;;;;;;4972662;28;20046;-84
2023/12/23 08:50:05;;;;;;;32.22;6.50;;;8.80;99.90;;;;;;4939114;28;20042;-83
2023/12/23 08:52:30;;;;;;;27.50;5.97;;;8.80;99.90;;;;;;4954725;28;20378;-85
2023/12/23 08:54:56;;;;;;;26.27;5.70;;;8.80;99.90;;;;;;4954487;28;20049;-85
2023/12/23 08:57:21;;;;;;;28.98;6.00;;;8.80;99.90;;;;;;4956641;28;20485;-85
2023/12/23 08:59:47;;;;;;;25.33;5.80;;;8.90;99.90;;;;;;4936758;28;20057;-84
2023/12/23 09:02:12;;;;;;;31.63;7.25;;;8.90;99.90;;;;;;4955582;28;20042;-83
2023/12/23 09:04:38;;;;;;;36.97;8.38;;;8.80;99.90;;;;;;4955207;28;20030;-82
2023/12/23 09:07:04;;;;;;;31.70;6.55;;;8.80;99.90;;;;;;4955259;28;20535;-82
2023/12/23 09:09:29;;;;;;;29.10;6.47;;;8.80;99.90;;;;;;4956972;28;20521;-85
2023/12/23 09:11:55;;;;;;;25.95;6.22;;;8.80;99.90;;;;;;4940337;28;20051;-85
2023/12/23 09:14:20;;;;;;;29.67;6.32;;;8.80;99.90;;;;;;4955842;28;20038;-84
2023/12/23 09:16:46;;;;;;;22.33;6.30;;;8.80;99.90;;;;;;4971712;28;20093;-83
2023/12/23 09:19:11;;;;;;;26.98;6.07;;;8.70;99.90;;;;;;4965282;28;20109;-81
2023/12/23 09:21:37;;;;;;;29.63;6.20;;;8.80;99.90;;;;;;4952201;28;20041;-80
2023/12/23 09:24:03;;;;;;;27.20;5.65;;;8.80;99.90;;;;;;4939562;28;20456;-81
2023/12/23 09:26:28;;;;;;;25.45;5.65;;;8.80;99.90;;;;;;4952100;28;20043;-81
2023/12/23 09:28:54;;;;;;;26.65;6.10;;;8.80;99.90;;;;;;4954885;28;20389;-81
2023/12/23 09:31:19;;;;;;;22.90;5.68;;;8.80;99.90;;;;;;4955590;28;20163;-81
2023/12/23 09:33:45;;;;;;;29.98;5.75;;;8.80;99.90;;;;;;4954792;28;20069;-80
2023/12/23 09:36:11;;;;;;;18.80;4.88;;;8.80;99.90;;;;;;4954784;28;20037;-81
2023/12/23 09:38:37;;;;;;;18.30;4.22;;;8.80;99.90;;;;;;4953418;28;20033;-82
2023/12/23 09:41:03;;;;;;;22.85;4.93;;;8.80;99.90;;;;;;4954056;28;20133;-83
2023/12/23 09:43:29;;;;;;;21.83;5.07;;;8.80;99.90;;;;;;4967816;28;20039;-84
2023/12/23 09:45:57;;;;;;;19.85;4.85;;;8.80;99.90;;;;;;4955418;28;20408;-82
2023/12/23 09:48:23;;;;;;;22.75;4.60;;;8.80;99.90;;;;;;4955445;28;20125;-79
2023/12/23 09:50:49;;;;;;;20.05;5.60;;;8.80;99.90;;;;;;4954617;28;20051;-81
2023/12/23 09:53:16;;;;;;;21.33;5.05;;;8.90;99.90;;;;;;4971039;28;20505;-80
2023/12/23 09:55:43;;;;;;;24.85;5.18;;;8.90;99.90;;;;;;4939064;28;20070;-79
2023/12/23 09:58:08;;;;;;;28.25;5.38;;;8.90;99.90;;;;;;4971022;28;20042;-80
2023/12/23 10:00:34;;;;;;;22.50;4.63;;;8.90;99.90;;;;;;4955788;28;20050;-81
2023/12/23 10:03:00;;;;;;;26.13;5.22;;;8.90;99.90;;;;;;4950166;28;20042;-81
2023/12/23 10:05:32;;;;;;;23.13;5.38;;;8.90;99.90;;;;;;4954536;28;20039;-80
2023/12/23 10:07:58;;;;;;;23.55;5.28;;;8.90;99.90;;;;;;4934514;28;20050;-80
2023/12/23 10:10:30;;;;;;;25.05;4.95;;;8.90;99.90;;;;;;4950263;28;20082;-80
2023/12/23 10:12:56;;;;;;;21.73;5.18;;;8.90;99.90;;;;;;4954785;28;20082;-80
2023/12/23 10:15:21;;;;;;;19.25;4.93;;;8.90;99.90;;;;;;4955195;28;20069;-80
2023/12/23 10:17:47;;;;;;;24.90;5.13;;;8.90;99.90;;;;;;4953408;28;20046;-82
2023/12/23 10:20:13;;;;;;;25.10;5.15;;;8.90;99.90;;;;;;4965627;28;20046;-80
2023/12/23 10:22:43;;;;;;;22.98;5.13;;;8.90;99.90;;;;;;4953241;28;20105;-80
2023/12/23 10:25:08;;;;;;;23.58;4.82;;;8.90;99.90;;;;;;4959504;28;20421;-80
2023/12/23 10:27:35;;;;;;;23.15;5.32;;;8.80;99.90;;;;;;4975610;28;20078;-80
2023/12/23 10:30:07;;;;;;;23.17;5.22;;;8.90;99.90;;;;;;4936858;29;20051;-80
2023/12/23 10:32:36;;;;;;;22.00;4.50;;;8.80;99.90;;;;;;4936605;29;20039;-80
2023/12/23 10:35:05;;;;;;;23.83;4.90;;;8.90;99.90;;;;;;4937059;29;20282;-80
2023/12/23 10:37:33;;;;;;;24.85;4.72;;;8.90;99.90;;;;;;4936447;29;20051;-80
2023/12/23 10:40:09;;;;;;;21.05;4.90;;;8.80;99.90;;;;;;4952380;28;20366;-80
2023/12/23 10:42:37;;;;;;;21.90;5.43;;;8.90;99.90;;;;;;4952931;28;20546;-79
2023/12/23 10:45:04;;;;;;;20.15;4.90;;;8.90;99.90;;;;;;4958730;28;20378;-80
2023/12/23 10:47:32;;;;;;;26.17;5.00;;;8.90;99.90;;;;;;4940113;28;20053;-80
2023/12/23 10:49:59;;;;;;;18.88;4.43;;;8.90;99.90;;;;;;4953408;28;20089;-79
2023/12/23 10:52:26;;;;;;;23.90;5.10;;;9.00;99.90;;;;;;4953071;28;20037;-83
2023/12/23 10:54:52;;;;;;;22.58;4.80;;;8.90;99.90;;;;;;4957436;28;20563;-81
2023/12/23 10:57:19;;;;;;;24.52;4.88;;;9.00;99.90;;;;;;4958195;28;20122;-82
2023/12/23 10:59:44;;;;;;;24.13;4.70;;;8.90;99.90;;;;;;4938089;28;20046;-81
2023/12/23 11:02:14;;;;;;;18.02;4.25;;;9.00;99.90;;;;;;4958423;28;20039;-79
2023/12/23 11:04:43;;;;;;;22.20;5.07;;;9.00;99.90;;;;;;4974037;28;20038;-80
2023/12/23 11:07:11;;;;;;;20.40;4.22;;;9.00;99.90;;;;;;4952253;28;20384;-80
2023/12/23 11:09:38;;;;;;;22.60;5.20;;;9.00;99.90;;;;;;4957782;28;20097;-80
2023/12/23 11:12:05;;;;;;;21.83;4.60;;;9.00;99.90;;;;;;4958018;28;20493;-80
2023/12/23 11:14:31;;;;;;;16.95;4.38;;;9.10;99.90;;;;;;4973606;28;20038;-80
2023/12/23 11:16:57;;;;;;;22.67;5.13;;;9.10;99.90;;;;;;4974075;28;20097;-80
2023/12/23 11:19:24;;;;;;;20.48;4.57;;;9.10;99.90;;;;;;4958237;28;20065;-80
2023/12/23 11:22:19;;;;;;;20.58;4.50;;;9.10;99.90;;;;;;4973750;28;20069;-80
2023/12/23 11:24:44;;;;;;;18.95;4.28;;;9.10;99.90;;;;;;4940488;28;20035;-80
2023/12/23 11:27:31;;;;;;;21.08;5.03;;;9.20;99.90;;;;;;4953237;28;20054;-80
2023/12/23 11:30:07;;;;;;;23.42;5.38;;;9.20;99.90;;;;;;4958253;28;20057;-80
2023/12/23 11:32:37;;;;;;;18.45;4.00;;;9.20;99.90;;;;;;4942384;28;20039;-80
2023/12/23 11:35:09;;;;;;;19.17;4.82;;;9.20;99.90;;;;;;4957032;28;20034;-80
2023/12/23 11:37:51;;;;;;;22.23;5.40;;;9.20;99.90;;;;;;4956912;28;20389;-80
2023/12/23 11:40:18;;;;;;;27.67;5.03;;;9.30;99.90;;;;;;4952033;28;20066;-80
2023/12/23 11:42:44;;;;;;;21.50;4.97;;;9.30;99.90;;;;;;4949727;28;20034;-80
2023/12/23 11:45:13;;;;;;;21.35;4.53;;;9.40;99.90;;;;;;4957477;28;20039;-83
2023/12/23 11:47:40;;;;;;;23.50;5.82;;;9.40;99.90;;;;;;4970449;28;20127;-83
2023/12/23 11:50:07;;;;;;;20.00;5.43;;;9.40;99.90;;;;;;4942990;28;20059;-80
2023/12/23 11:52:33;;;;;;;25.77;4.88;;;9.40;99.90;;;;;;4973816;28;20043;-80
2023/12/23 11:54:59;;;;;;;22.40;5.30;;;9.50;99.90;;;;;;4956359;28;20042;-79
2023/12/23 11:57:25;;;;;;;22.30;4.70;;;9.50;99.90;;;;;;4972845;28;20071;-79
2023/12/23 11:59:51;;;;;;;21.88;5.60;;;9.50;99.90;;;;;;4954736;28;20497;-80
2023/12/23 12:02:17;;;;;;;21.45;5.43;;;9.50;99.90;;;;;;4951963;28;20054;-80
2023/12/23 12:04:42;;;;;;;22.42;4.88;;;9.50;99.90;;;;;;4957117;28;20045;-80
2023/12/23 12:07:08;;;;;;;23.17;4.95;;;9.50;99.90;;;;;;4957651;28;20446;-80
2023/12/23 12:09:34;;;;;;;24.17;5.35;;;9.50;99.90;;;;;;4948777;28;20121;-80
2023/12/23 12:12:00;;;;;;;20.50;5.13;;;9.50;99.90;;;;;;4949169;28;20150;-80
2023/12/23 12:14:29;;;;;;;21.35;4.88;;;9.50;99.90;;;;;;4940985;28;20486;-80
2023/12/23 12:16:54;;;;;;;22.35;5.22;;;9.50;99.90;;;;;;4953068;28;20494;-79
2023/12/23 12:19:20;;;;;;;21.23;5.22;;;9.50;99.90;;;;;;4952152;28;20047;-80
2023/12/23 12:21:46;;;;;;;24.50;4.70;;;9.50;99.90;;;;;;4941168;28;20084;-79
2023/12/23 12:24:11;;;;;;;22.13;4.57;;;9.50;99.90;;;;;;4948599;28;20093;-79
2023/12/23 12:26:37;;;;;;;22.63;4.78;;;9.50;99.90;;;;;;4956789;28;20045;-79
2023/12/23 12:29:03;;;;;;;24.92;5.13;;;9.50;99.90;;;;;;4956701;28;20035;-79
2023/12/23 12:31:30;;;;;;;20.45;4.70;;;9.50;99.90;;;;;;4948830;28;20050;-79
2023/12/23 12:33:56;;;;;;;19.67;4.40;;;9.50;99.90;;;;;;4956306;28;20133;-79
2023/12/23 12:36:22;;;;;;;19.95;4.25;;;9.50;99.90;;;;;;4956918;28;20042;-79
2023/12/23 12:38:49;;;;;;;15.95;3.90;;;9.50;99.90;;;;;;4963443;28;20039;-80
2023/12/23 12:41:15;;;;;;;18.98;4.75;;;9.50;99.90;;;;;;4950400;29;20078;-79
2023/12/23 12:43:42;;;;;;;18.73;4.63;;;9.60;99.90;;;;;;4937490;29;20501;-80
2023/12/23 12:46:08;;;;;;;17.98;4.28;;;9.60;99.90;;;;;;4948433;28;20050;-80
2023/12/23 12:48:33;;;;;;;18.05;3.75;;;9.60;99.90;;;;;;4956918;28;20045;-79
2023/12/23 12:50:59;;;;;;;17.33;4.10;;;9.60;99.90;;;;;;4957162;28;20043;-79
2023/12/23 12:53:25;;;;;;;17.92;4.55;;;9.60;99.90;;;;;;4947311;28;20088;-79
2023/12/23 12:55:51;;;;;;;17.85;3.92;;;9.60;99.90;;;;;;4964921;28;20034;-79
2023/12/23 12:58:17;;;;;;;20.95;4.45;;;9.60;99.90;;;;;;4957583;28;20042;-79
2023/12/23 13:00:42;;;;;;;20.02;4.50;;;9.70;99.90;;;;;;4957147;28;20043;-79
2023/12/23 13:03:09;;;;;;;13.68;4.25;;;9.70;99.90;;;;;;4940618;28;20043;-79